Home   Weather   Portugal   Miranda do Douro   Past weeks
Flag for Portugal

Past Weather in Miranda do Douro, Bragança, Portugal — Yesterday and Last 2 Weeks

Currently: 50 °F. Sunny. (Weather station: Salamanca / Matacan, Portugal). See more current weather

Past Weather in Miranda do Douro — Graph

°F

Miranda do Douro Temperature Yesterday

Maximum temperature yesterday: 50 °F (at 4:00 pm)
Minimum temperature yesterday: 23 °F (at 5:00 am)
Average temperature yesterday: 34 °F

High & Low Weather Summary for the Past Weeks

 TemperatureHumidityPressure
High54 °F (Jan 20, 2:30 pm)100% (Jan 21, 5:30 am)30.54 "Hg (Jan 21, 5:30 am)
Low21 °F (Jan 23, 6:00 am)33% (Feb 3, 2:00 pm)30.01 "Hg (Jan 19, 7:00 pm)
Average34 °F83%30.29 "Hg
* Reported Jan 19 4:00 pm — Feb 3 4:00 pm, Miranda do Douro. Weather by CustomWeather, © 2023

Note: Actual official high and low records may vary slightly from our data, if they occured in-between our weather recording intervals... More about our weather records

Miranda do Douro Weather History for the Previous 24 Hours

Scroll right to see more
 ConditionsComfort  
Time TempWeatherWind HumidityBarometerVisibility
4:00 pm
Fri, Feb 3
54 °FPassing clouds.5 mph33%30.48 "HgN/A
3:30 pm54 °FPassing clouds.6 mph33%30.48 "HgN/A
3:00 pm54 °FPassing clouds.8 mph35%30.48 "HgN/A
2:30 pm54 °FPassing clouds.5 mph35%30.48 "HgN/A
2:00 pm54 °FSunny.2 mph33%30.48 "Hg10 mi
1:30 pm54 °FSunny.1 mph41%30.48 "Hg10 mi
1:00 pm52 °FSunny.2 mph44%30.51 "Hg10 mi
12:30 pm50 °FSunny.2 mph50%30.51 "Hg10 mi
12:00 pm48 °FPassing clouds.3 mph54%30.51 "HgN/A
11:30 am45 °FSunny.2 mph61%30.54 "Hg10 mi
11:00 am41 °FPassing clouds.3 mph70%30.54 "HgN/A
10:30 am39 °FClear.1 mph75%30.54 "Hg6 mi
10:00 am36 °FClear.1 mph87%30.54 "Hg5 mi
9:30 am32 °FClear.No wind93%30.51 "Hg4 mi
9:00 am28 °FIce fog.No wind93%30.51 "Hg3 mi
8:30 am25 °FIce fog.No wind93%30.51 "Hg2 mi
8:00 am21 °FIce fog.2 mph100%30.51 "Hg1 mi
7:30 am21 °FIce fog.2 mph100%30.51 "Hg0 mi
7:00 am21 °FIce fog.No wind100%30.48 "Hg0 mi
6:00 am23 °FIce fog.3 mph93%30.48 "Hg2 mi
5:30 am23 °FIce fog.3 mph100%30.48 "Hg0 mi
5:00 am25 °FIce fog.2 mph93%30.48 "Hg2 mi
4:30 am25 °FIce fog.2 mph93%30.48 "Hg3 mi
4:00 am23 °FIce fog.No wind100%30.48 "Hg0 mi
3:30 am25 °FIce fog.2 mph100%30.48 "Hg3 mi
3:00 am25 °FCold.2 mph100%30.48 "Hg4 mi
2:30 am25 °FIce fog.No wind100%30.48 "Hg1 mi
1:30 am25 °FIce fog.1 mph100%30.48 "Hg1 mi
1:00 am27 °FChilly.2 mph93%30.48 "Hg4 mi
11:30 pm
Thu, Feb 2
28 °FChilly.No wind93%30.48 "Hg4 mi
11:00 pm28 °FIce fog.1 mph100%30.48 "Hg1 mi
10:00 pm30 °FChilly.No wind93%30.48 "Hg4 mi
9:30 pm30 °FChilly.1 mph100%30.48 "Hg4 mi
9:00 pm30 °FChilly.No wind100%30.48 "Hg4 mi
8:00 pm34 °FClear.1 mph87%30.45 "Hg10 mi
7:30 pm36 °FClear.1 mph81%30.45 "Hg10 mi
7:00 pm37 °FClear.No wind81%30.45 "Hg10 mi
6:00 pm45 °FClear.2 mph61%30.45 "Hg10 mi
5:30 pm45 °FSunny.3 mph66%30.42 "Hg10 mi
5:00 pm46 °FSunny.5 mph57%30.42 "Hg10 mi
Weather by CustomWeather, © 2023

See weather overview